الصفحة الرئيسية
METAR-TAF:

METAR-TAF

مطار :

هنديرسون, نيفادا, الولايات المتحدة

دائرة عرض: 35-58-35N, خط طول: 115-07-58W, ارتفاع: 749 متر

مراقبة الطقس الحالي

تاريخ ووقت الإصدار 34 دقيقة قبل الساعة 10:56UTC
ريح 4 عقدة من الجنوب الشرقي
درجة الحرارة 17°درجة مئوية
الرطوبة 23%
ضغط 1021 hPa
الرؤية: 16.1 كم
سماء صافية

METAR: KHND 291056Z AUTO 13004KT 10SM CLR 17/M04 A3016 RMK AO2 SLP207 T01671039

زمن: 04:30 (11:30 UTC)

توقعات

تاريخ ووقت الإصدار 5ساعات و 54 دقيقة قبل الساعة 05:36UTC
التوقعات صالحة من29 الساعة 06 UTC إلى 30 الساعة 06 UTC
ريح 5 عقدةمن اتجاهات متغيرة
الرؤية: 10 كم
سماء صافية
من 29 الساعة 1700 UTC
ريح 6 عقدة من الشمال/الشمال الشرقي
الرؤية: 10 كم
سماء صافية
من 30 الساعة 0400 UTC
ريح 6 عقدة من الجنوب الغربي
الرؤية: 10 كم
سماء صافية

TAF: KHND 290536Z 2906/3006 VRB05KT P6SM SKC FM291700 02006KT P6SM SKC FM300400 22006KT P6SM SKC

أرصاد الطقس والتوقعات من أكثر من 4000 مطار (تقارير الطقس للمطار METAR والتنبؤ بالطقس بالمطارTAF).

المحطات المتاحة هي النقط الصفراء والحمراء على الخريطة.

حرك المؤشر فوق النقطة لمعرفة اسم المحطة.

ثم انقر لمعرفة أرصاد وتوقعات الطقس.

لتغيير الخارطة: اضغط على الأزرار الخضراء مع رمز الصليب الأسود للتكبير. على الزر الأخضر مع شرطة للتصغير، أو على الأسهم الخضراء للخرائط المجاورة.


METAR-TAF: